Time;durP1;ratioP1;P1;durP2;ratioP2;P2;SDS_P1;SDS_P2;PMS_P1;PMS_P2;Temp;Humidity;BMP_temperature;BMP_pressure;BME280_temperature;BME280_humidity;BME280_pressure;Samples;Min_cycle;Max_cycle;Signal;HPM_P1;HPM_P2
2023/03/28 00:02:28;;;;;;;;;;;;;;;-0.39;100.00;96240.69;10507699;28;2088;-71
2023/03/28 00:07:32;;;;;;;;;;;;;;;-0.52;100.00;96239.81;10504586;28;1985;-72
2023/03/28 00:12:34;;;;;;;;;;;;;;;-0.61;100.00;96242.59;10517952;28;1957;-72
2023/03/28 00:17:40;;;;;;;;;;;;;;;-0.61;100.00;96245.22;10505474;28;2119;-72
2023/03/28 00:22:43;;;;;;;;;;;;;;;-0.60;100.00;96246.88;10506364;28;1987;-72
2023/03/28 00:27:45;;;;;;;;;;;;;;;-0.44;100.00;96250.25;10503988;28;2041;-72
2023/03/28 00:32:47;;;;;;;;;;;;;;;-0.28;100.00;96244.63;10517319;28;1998;-74
2023/03/28 00:37:52;;;;;;;;;;;;;;;-0.18;100.00;96257.50;10518576;28;2116;-73
2023/03/28 00:42:54;;;;;;;;;;;;;;;-0.13;100.00;96263.00;10516616;28;2148;-71
2023/03/28 00:48:00;;;;;;;;;;;;;;;-0.16;100.00;96261.59;10505750;28;2065;-72
2023/03/28 00:53:04;;;;;;;;;;;;;;;-0.11;100.00;96253.91;10500305;28;2006;-72
2023/03/28 00:58:06;;;;;;;;;;;;;;;-0.08;100.00;96260.59;10505421;28;1988;-74
2023/03/28 01:03:12;;;;;;;;;;;;;;;-0.20;100.00;96265.59;10495150;28;2012;-75
2023/03/28 01:08:15;;;;;;;;;;;;;;;-0.36;100.00;96260.66;10505129;28;2001;-74
2023/03/28 01:13:17;;;;;;;;;;;;;;;-0.43;100.00;96260.59;10518461;28;2015;-75
2023/03/28 01:18:22;;;;;;;;;;;;;;;-0.42;100.00;96259.59;10510793;28;2093;-74
2023/03/28 01:23:25;;;;;;;;;;;;;;;-0.44;100.00;96260.81;10499291;28;1954;-73
2023/03/28 01:28:27;;;;;;;;;;;;;;;-0.57;100.00;96272.09;10502290;28;1935;-72
2023/03/28 01:33:30;;;;;;;;;;;;;;;-0.64;100.00;96279.13;10505536;28;1990;-71
2023/03/28 01:38:32;;;;;;;;;;;;;;;-0.74;100.00;96282.09;10515817;28;1923;-72
2023/03/28 01:43:35;;;;;;;;;;;;;;;-0.79;100.00;96283.66;10503853;28;2069;-72
2023/03/28 01:48:37;;;;;;;;;;;;;;;-0.84;100.00;96289.50;10493333;28;1646;-73
2023/03/28 01:53:40;;;;;;;;;;;;;;;-0.90;100.00;96287.63;10510773;28;1341;-70
2023/03/28 01:58:43;;;;;;;;;;;;;;;-0.98;100.00;96295.69;10517101;28;1927;-72
2023/03/28 02:03:46;;;;;;;;;;;;;;;-0.93;100.00;96306.50;10501525;28;2088;-75
2023/03/28 02:08:49;;;;;;;;;;;;;;;-1.00;100.00;96309.06;10504397;28;1958;-74
2023/03/28 02:13:51;;;;;;;;;;;;;;;-1.10;100.00;96304.09;10508170;28;1926;-71
2023/03/28 02:19:04;;;;;;;;;;;;;;;-1.12;100.00;96300.81;10509219;28;2001;-76
2023/03/28 02:24:08;;;;;;;;;;;;;;;-1.19;100.00;96310.50;10509009;28;2057;-75
2023/03/28 02:29:12;;;;;;;;;;;;;;;-1.27;100.00;96323.81;10504108;28;1986;-73
2023/03/28 02:34:15;;;;;;;;;;;;;;;-1.33;100.00;96321.09;10502095;28;2019;-76
2023/03/28 02:39:17;;;;;;;;;;;;;;;-1.32;100.00;96320.91;10506960;28;1985;-72
2023/03/28 02:44:20;;;;;;;;;;;;;;;-1.29;100.00;96320.53;10505832;28;1938;-71
2023/03/28 02:49:31;;;;;;;;;;;;;;;-1.39;100.00;96328.75;10505331;28;2027;-73
2023/03/28 02:54:52;;;;;;;;;;;;;;;-1.42;100.00;96323.00;10501421;28;1986;-74
2023/03/28 02:59:55;;;;;;;;;;;;;;;-1.41;100.00;96329.91;10508830;28;1978;-75
2023/03/28 03:05:00;;;;;;;;;;;;;;;-1.46;100.00;96325.22;10506765;28;2120;-74
2023/03/28 03:10:03;;;;;;;;;;;;;;;-1.45;100.00;96342.66;10489332;28;1969;-72
2023/03/28 03:15:06;;;;;;;;;;;;;;;-1.45;100.00;96336.56;10507497;28;2093;-72
2023/03/28 03:54:35;;;;;;;;;;;;;;;-1.42;100.00;96365.19;10516627;28;2042;-74
2023/03/28 03:59:40;;;;;;;;;;;;;;;-1.44;100.00;96372.50;10516134;28;2003;-73
2023/03/28 04:04:44;;;;;;;;;;;;;;;-1.49;100.00;96377.50;10513487;28;2202;-72
2023/03/28 04:09:47;;;;;;;;;;;;;;;-1.57;100.00;96377.59;10518794;28;2077;-72
2023/03/28 04:14:51;;;;;;;;;;;;;;;-1.62;100.00;96380.78;10509450;28;2054;-70
2023/03/28 04:19:54;;;;;;;;;;;;;;;-1.66;100.00;96384.75;10505306;28;2112;-71
2023/03/28 04:24:57;;;;;;;;;;;;;;;-1.76;100.00;96387.69;10517522;28;2089;-73
2023/03/28 04:30:00;;;;;;;;;;;;;;;-1.84;100.00;96397.50;10504821;28;2238;-73
2023/03/28 04:35:04;;;;;;;;;;;;;;;-1.86;100.00;96397.66;10504038;28;2142;-73
2023/03/28 04:40:09;;;;;;;;;;;;;;;-1.85;100.00;96396.66;10514568;28;2036;-72
2023/03/28 04:45:11;;;;;;;;;;;;;;;-1.91;100.00;96407.91;10508943;28;2077;-73
2023/03/28 04:50:17;;;;;;;;;;;;;;;-1.95;100.00;96402.22;10507804;28;2170;-74
2023/03/28 04:55:19;;;;;;;;;;;;;;;-1.94;100.00;96416.19;10498933;28;2003;-73
2023/03/28 05:00:22;;;;;;;;;;;;;;;-1.89;100.00;96419.13;10508388;28;2063;-73
2023/03/28 05:05:27;;;;;;;;;;;;;;;-1.94;100.00;96413.56;10511205;28;2115;-78
2023/03/28 05:10:30;;;;;;;;;;;;;;;-1.99;100.00;96422.00;10513753;28;2187;-73
2023/03/28 05:15:32;;;;;;;;;;;;;;;-1.93;100.00;96423.09;10516039;28;2095;-71
2023/03/28 05:20:35;;;;;;;;;;;;;;;-1.89;100.00;96426.22;10512198;28;2226;-73
2023/03/28 05:25:38;;;;;;;;;;;;;;;-1.82;100.00;96435.84;10518905;28;2039;-76
2023/03/28 05:30:41;;;;;;;;;;;;;;;-1.76;100.00;96429.84;10513519;28;2007;-69
2023/03/28 05:35:44;;;;;;;;;;;;;;;-1.58;100.00;96437.41;10521155;28;2071;-72
2023/03/28 05:40:47;;;;;;;;;;;;;;;-1.46;100.00;96445.69;10516691;28;2054;-76
2023/03/28 05:45:50;;;;;;;;;;;;;;;-1.25;100.00;96444.94;10515030;28;2152;-78
2023/03/28 05:50:52;;;;;;;;;;;;;;;-1.08;100.00;96456.94;10511355;28;1958;-75
2023/03/28 05:55:55;;;;;;;;;;;;;;;-0.89;100.00;96461.66;10515120;28;1962;-77
2023/03/28 06:01:00;;;;;;;;;;;;;;;-0.81;100.00;96455.44;10507717;28;2026;-76
2023/03/28 06:06:03;;;;;;;;;;;;;;;-0.59;100.00;96464.22;10511640;28;1936;-76
2023/03/28 06:11:06;;;;;;;;;;;;;;;-0.52;100.00;96472.19;10513085;28;1943;-76
2023/03/28 06:16:09;;;;;;;;;;;;;;;0.02;100.00;96471.72;10512633;28;1988;-76
2023/03/28 06:21:19;;;;;;;;;;;;;;;0.07;100.00;96477.25;10503209;28;1966;-77
2023/03/28 06:26:22;;;;;;;;;;;;;;;0.26;100.00;96484.53;10515603;28;2058;-76
2023/03/28 06:31:25;;;;;;;;;;;;;;;0.38;100.00;96483.00;10510474;28;1956;-77
2023/03/28 06:36:28;;;;;;;;;;;;;;;0.42;100.00;96488.72;10509006;28;1985;-75
2023/03/28 06:41:30;;;;;;;;;;;;;;;0.24;100.00;96497.09;10510957;28;2124;-76
2023/03/28 06:46:33;;;;;;;;;;;;;;;0.32;100.00;96504.94;10491591;28;2085;-77
2023/03/28 06:51:36;;;;;;;;;;;;;;;0.61;100.00;96508.38;10509928;28;2019;-78
2023/03/28 06:56:38;;;;;;;;;;;;;;;0.85;100.00;96526.47;10501131;28;2049;-78
2023/03/28 07:01:41;;;;;;;;;;;;;;;0.88;100.00;96528.69;10513474;28;1999;-78
2023/03/28 07:06:43;;;;;;;;;;;;;;;0.79;100.00;96538.63;10519855;28;1939;-81
2023/03/28 07:11:45;;;;;;;;;;;;;;;1.19;100.00;96533.56;10518008;28;1938;-76
2023/03/28 07:16:48;;;;;;;;;;;;;;;1.39;100.00;96540.78;10520806;28;1976;-76
2023/03/28 07:21:51;;;;;;;;;;;;;;;1.54;100.00;96550.25;10512922;28;2011;-77
2023/03/28 07:26:54;;;;;;;;;;;;;;;1.84;100.00;96547.28;10512714;28;2035;-76
2023/03/28 07:32:17;;;;;;;;;;;;;;;1.67;100.00;96552.13;10514413;28;2119;-78
2023/03/28 07:37:21;;;;;;;;;;;;;;;2.27;100.00;96553.09;10515072;28;2074;-77
2023/03/28 07:42:23;;;;;;;;;;;;;;;2.13;100.00;96565.50;10510218;28;2029;-76
2023/03/28 07:47:26;;;;;;;;;;;;;;;1.89;100.00;96566.06;10512640;28;2101;-78
2023/03/28 07:52:29;;;;;;;;;;;;;;;2.10;100.00;96565.94;10524436;28;1978;-78
2023/03/28 07:57:32;;;;;;;;;;;;;;;2.09;100.00;96572.22;10514917;28;2085;-77
2023/03/28 08:02:34;;;;;;;;;;;;;;;1.64;100.00;96579.00;10530455;28;2068;-76
2023/03/28 08:07:37;;;;;;;;;;;;;;;2.16;100.00;96585.50;10498599;28;2073;-77
2023/03/28 08:12:39;;;;;;;;;;;;;;;3.09;100.00;96575.75;10498348;28;1994;-76
2023/03/28 08:17:41;;;;;;;;;;;;;;;3.61;100.00;96579.28;10513762;28;2046;-77
2023/03/28 08:22:44;;;;;;;;;;;;;;;3.47;100.00;96583.84;10509755;28;1959;-76
2023/03/28 08:27:46;;;;;;;;;;;;;;;2.83;100.00;96595.19;10523795;28;2168;-77
2023/03/28 08:32:49;;;;;;;;;;;;;;;3.40;100.00;96590.19;10516773;28;1958;-78
2023/03/28 08:37:52;;;;;;;;;;;;;;;3.73;100.00;96595.41;10519958;28;2012;-77
2023/03/28 08:42:55;;;;;;;;;;;;;;;3.64;100.00;96586.88;10514964;28;2026;-76
2023/03/28 08:47:57;;;;;;;;;;;;;;;3.20;100.00;96583.09;10519636;28;2114;-76
2023/03/28 08:53:00;;;;;;;;;;;;;;;3.14;100.00;96591.06;10513518;28;2011;-77
2023/03/28 08:58:03;;;;;;;;;;;;;;;3.47;100.00;96596.31;10511287;28;2120;-75
2023/03/28 09:03:05;;;;;;;;;;;;;;;3.22;100.00;96596.97;10508416;28;1980;-76
2023/03/28 09:08:08;;;;;;;;;;;;;;;3.04;100.00;96599.44;10513241;28;2073;-77
2023/03/28 09:13:20;;;;;;;;;;;;;;;2.84;100.00;96601.31;10502538;28;1978;-76
2023/03/28 09:18:23;;;;;;;;;;;;;;;2.86;100.00;96600.09;10519779;28;2036;-76
2023/03/28 09:23:26;;;;;;;;;;;;;;;2.98;100.00;96603.75;10513204;28;2104;-75
2023/03/28 09:28:28;;;;;;;;;;;;;;;3.34;100.00;96602.47;10517958;28;2000;-76
2023/03/28 09:33:32;;;;;;;;;;;;;;;3.89;97.61;96594.97;10512593;28;2018;-77
2023/03/28 09:38:34;;;;;;;;;;;;;;;3.38;92.43;96605.56;10511169;28;2010;-75
2023/03/28 09:43:37;;;;;;;;;;;;;;;3.12;90.04;96609.88;10511539;28;1987;-77
2023/03/28 09:48:39;;;;;;;;;;;;;;;3.01;91.05;96613.16;10513424;28;2083;-77
2023/03/28 09:53:42;;;;;;;;;;;;;;;3.20;81.85;96600.88;10513518;28;1974;-77
2023/03/28 09:58:46;;;;;;;;;;;;;;;3.44;81.61;96608.19;10514607;28;1971;-76
2023/03/28 10:03:48;;;;;;;;;;;;;;;3.89;74.22;96602.13;10508671;28;2122;-77
2023/03/28 10:08:50;;;;;;;;;;;;;;;3.97;70.96;96608.00;10514901;28;1958;-76
2023/03/28 10:13:55;;;;;;;;;;;;;;;4.30;66.89;96599.03;10508675;28;1971;-77
2023/03/28 10:18:58;;;;;;;;;;;;;;;5.73;62.25;96585.72;10509751;28;2091;-77
2023/03/28 10:24:01;;;;;;;;;;;;;;;5.20;63.99;96578.25;10517616;28;2102;-77
2023/03/28 10:29:03;;;;;;;;;;;;;;;5.09;64.38;96595.81;10500431;28;2127;-76
2023/03/28 10:34:07;;;;;;;;;;;;;;;4.81;73.97;96588.22;10511486;28;1966;-78
2023/03/28 10:39:10;;;;;;;;;;;;;;;4.77;68.19;96599.53;10513530;28;2077;-76
2023/03/28 10:44:13;;;;;;;;;;;;;;;4.72;65.96;96596.72;10495465;28;2030;-77
2023/03/28 10:49:16;;;;;;;;;;;;;;;4.86;61.11;96591.06;10516080;28;1932;-76
2023/03/28 10:54:19;;;;;;;;;;;;;;;4.82;60.57;96587.19;10532888;28;1931;-78
2023/03/28 10:59:22;;;;;;;;;;;;;;;5.17;58.76;96592.03;10522615;28;2101;-77
2023/03/28 11:04:26;;;;;;;;;;;;;;;5.23;55.62;96575.16;10510975;28;2087;-76
2023/03/28 11:09:29;;;;;;;;;;;;;;;5.60;53.85;96568.03;10516156;28;1983;-75
2023/03/28 11:14:31;;;;;;;;;;;;;;;6.02;56.58;96568.13;10514962;28;1991;-75
2023/03/28 11:19:34;;;;;;;;;;;;;;;5.31;54.76;96574.88;10528494;28;2033;-77
2023/03/28 11:24:36;;;;;;;;;;;;;;;5.88;57.01;96572.81;10517779;28;1963;-75
2023/03/28 11:29:39;;;;;;;;;;;;;;;6.18;55.00;96566.72;10491806;28;1990;-76
2023/03/28 11:34:46;;;;;;;;;;;;;;;6.14;53.50;96558.34;10521205;28;2018;-76
2023/03/28 11:39:50;;;;;;;;;;;;;;;5.21;54.03;96558.56;10513697;28;1963;-78
2023/03/28 11:44:53;;;;;;;;;;;;;;;5.43;56.90;96548.31;10520174;28;1955;-77
2023/03/28 11:49:55;;;;;;;;;;;;;;;5.99;57.22;96549.13;10505517;28;1984;-77
2023/03/28 11:54:58;;;;;;;;;;;;;;;6.53;53.08;96544.63;10515456;28;1974;-77
2023/03/28 12:00:03;;;;;;;;;;;;;;;6.85;50.40;96527.25;10517860;28;2018;-77
2023/03/28 12:05:07;;;;;;;;;;;;;;;6.65;50.76;96529.44;10515952;28;2595;-77
2023/03/28 12:10:10;;;;;;;;;;;;;;;6.58;51.83;96529.56;10508205;28;1982;-77
2023/03/28 12:15:12;;;;;;;;;;;;;;;6.60;53.29;96515.97;10510972;28;1977;-78
2023/03/28 12:20:15;;;;;;;;;;;;;;;6.49;53.44;96514.91;10516689;28;2060;-78
2023/03/28 12:25:18;;;;;;;;;;;;;;;6.28;52.93;96513.56;10524121;28;2049;-76
2023/03/28 12:30:21;;;;;;;;;;;;;;;5.99;53.96;96514.41;10511265;28;1970;-75
2023/03/28 12:35:24;;;;;;;;;;;;;;;5.60;52.70;96511.19;10516144;28;2055;-78
2023/03/28 12:40:27;;;;;;;;;;;;;;;5.32;53.61;96509.84;10518735;28;1976;-75
2023/03/28 12:45:30;;;;;;;;;;;;;;;5.32;55.45;96503.72;10505484;28;2043;-76
2023/03/28 12:50:33;;;;;;;;;;;;;;;5.19;53.08;96504.66;10523686;28;1959;-78
2023/03/28 12:55:36;;;;;;;;;;;;;;;5.57;52.57;96495.63;10515324;28;2036;-78
2023/03/28 13:00:38;;;;;;;;;;;;;;;5.49;55.92;96495.94;10513055;28;2005;-77
2023/03/28 13:05:41;;;;;;;;;;;;;;;5.89;53.03;96505.06;10509486;28;1951;-76
2023/03/28 13:10:45;;;;;;;;;;;;;;;6.44;51.97;96496.09;10509797;28;2035;-76
2023/03/28 13:15:47;;;;;;;;;;;;;;;6.31;50.44;96497.09;10507849;28;1982;-76
2023/03/28 13:20:50;;;;;;;;;;;;;;;5.94;50.79;96486.53;10522337;28;1975;-75
2023/03/28 13:25:53;;;;;;;;;;;;;;;5.63;51.46;96484.06;10514981;28;2014;-77
2023/03/28 13:30:56;;;;;;;;;;;;;;;6.02;52.58;96472.06;10506522;28;1930;-75
2023/03/28 13:36:09;;;;;;;;;;;;;;;6.03;53.38;96464.88;10512481;28;2002;-76
2023/03/28 13:41:13;;;;;;;;;;;;;;;6.35;50.62;96465.41;10513492;28;2062;-75
2023/03/28 13:46:16;;;;;;;;;;;;;;;5.93;49.50;96452.09;10516158;28;2097;-75
2023/03/28 13:51:19;;;;;;;;;;;;;;;6.20;50.08;96442.63;10505871;28;1998;-76
2023/03/28 13:56:22;;;;;;;;;;;;;;;6.55;48.37;96433.03;10510727;28;1982;-77
2023/03/28 14:01:25;;;;;;;;;;;;;;;6.63;48.19;96440.72;10507288;28;2047;-76
2023/03/28 14:06:29;;;;;;;;;;;;;;;6.66;50.03;96435.69;10493545;28;1950;-77
2023/03/28 14:11:32;;;;;;;;;;;;;;;6.74;50.10;96434.53;10505792;28;2037;-76
2023/03/28 14:16:35;;;;;;;;;;;;;;;6.59;49.30;96431.53;10510091;28;2065;-76
2023/03/28 14:21:38;;;;;;;;;;;;;;;6.47;48.88;96421.66;10513097;28;2065;-76
2023/03/28 14:26:40;;;;;;;;;;;;;;;6.35;48.97;96417.34;10502398;28;2054;-76
2023/03/28 14:31:44;;;;;;;;;;;;;;;6.44;51.59;96422.13;10508052;28;1967;-75
2023/03/28 14:36:48;;;;;;;;;;;;;;;6.61;49.93;96416.06;10505725;28;2029;-76
2023/03/28 14:41:50;;;;;;;;;;;;;;;6.72;48.75;96404.56;10516367;28;1974;-77
2023/03/28 14:46:53;;;;;;;;;;;;;;;6.89;48.32;96416.19;10503223;28;1974;-76
2023/03/28 14:51:55;;;;;;;;;;;;;;;6.91;49.43;96421.28;10507872;28;2077;-76
2023/03/28 14:56:58;;;;;;;;;;;;;;;6.87;49.22;96418.28;10500609;28;2002;-77
2023/03/28 15:02:00;;;;;;;;;;;;;;;7.25;48.50;96414.25;10506856;28;2034;-76
2023/03/28 15:07:07;;;;;;;;;;;;;;;7.59;46.34;96410.66;10499422;28;2043;-76
2023/03/28 15:12:10;;;;;;;;;;;;;;;7.61;45.62;96404.25;10505471;28;1977;-76
2023/03/28 15:17:15;;;;;;;;;;;;;;;7.67;46.67;96403.28;10519219;28;2027;-77
2023/03/28 15:22:18;;;;;;;;;;;;;;;7.70;46.27;96397.44;10505563;28;1999;-76
2023/03/28 15:27:21;;;;;;;;;;;;;;;7.51;46.84;96400.34;10500779;28;2037;-77
2023/03/28 15:32:24;;;;;;;;;;;;;;;7.10;47.26;96388.00;10505776;28;2454;-77
2023/03/28 15:37:26;;;;;;;;;;;;;;;7.08;48.03;96384.78;10512195;28;2018;-76
2023/03/28 15:42:29;;;;;;;;;;;;;;;7.07;48.88;96385.00;10506502;28;2154;-77
2023/03/28 15:47:31;;;;;;;;;;;;;;;7.07;48.81;96382.34;10506107;28;2015;-77
2023/03/28 15:52:34;;;;;;;;;;;;;;;6.98;49.36;96377.34;10512558;28;2105;-76
2023/03/28 15:57:36;;;;;;;;;;;;;;;7.19;48.29;96385.78;10517634;28;1963;-76
2023/03/28 16:02:39;;;;;;;;;;;;;;;7.22;48.60;96379.97;10510970;28;2045;-77
2023/03/28 16:07:42;;;;;;;;;;;;;;;7.19;48.28;96373.25;10508635;28;1991;-76
2023/03/28 16:12:45;;;;;;;;;;;;;;;7.08;47.23;96365.25;10498581;28;1965;-77
2023/03/28 16:17:48;;;;;;;;;;;;;;;7.30;48.20;96369.69;10519376;28;1927;-78
2023/03/28 16:22:58;;;;;;;;;;;;;;;7.43;47.19;96365.13;10521093;28;1965;-79
2023/03/28 16:28:02;;;;;;;;;;;;;;;7.55;47.47;96363.19;10502343;28;2023;-77
2023/03/28 16:33:10;;;;;;;;;;;;;;;7.15;46.93;96361.38;10520440;28;2014;-76
2023/03/28 16:38:16;;;;;;;;;;;;;;;7.20;47.67;96356.16;10525761;28;1734;-76
2023/03/28 16:43:20;;;;;;;;;;;;;;;6.83;47.71;96360.19;10527612;28;1906;-77
2023/03/28 16:48:23;;;;;;;;;;;;;;;6.60;49.21;96364.50;10543673;28;1772;-76
2023/03/28 16:53:25;;;;;;;;;;;;;;;6.55;49.21;96363.56;10526866;28;1725;-76
2023/03/28 16:58:29;;;;;;;;;;;;;;;6.28;51.29;96357.91;10533528;28;1943;-78
2023/03/28 17:03:32;;;;;;;;;;;;;;;6.06;51.28;96355.00;10518818;28;1959;-77
2023/03/28 17:08:34;;;;;;;;;;;;;;;5.77;54.52;96360.13;10531081;28;1820;-78
2023/03/28 17:13:37;;;;;;;;;;;;;;;5.47;55.31;96340.66;10530007;28;1757;-77
2023/03/28 17:18:40;;;;;;;;;;;;;;;5.28;56.37;96340.75;10516481;28;1990;-77
2023/03/28 17:23:42;;;;;;;;;;;;;;;5.08;58.42;96348.19;10511280;28;2020;-77
2023/03/28 17:28:45;;;;;;;;;;;;;;;4.83;60.74;96329.63;10512713;28;2002;-75
2023/03/28 17:33:48;;;;;;;;;;;;;;;4.60;64.13;96331.13;10514850;28;2026;-77
2023/03/28 17:38:51;;;;;;;;;;;;;;;4.50;64.83;96330.00;10518939;28;1975;-76
2023/03/28 17:43:53;;;;;;;;;;;;;;;4.32;70.84;96336.94;10515020;28;1966;-78
2023/03/28 17:48:55;;;;;;;;;;;;;;;4.28;73.50;96327.78;10496350;28;2003;-77
2023/03/28 17:54:00;;;;;;;;;;;;;;;4.23;75.15;96327.63;10495615;28;2042;-77
2023/03/28 17:59:04;;;;;;;;;;;;;;;4.15;76.11;96322.59;10505012;28;2029;-76
2023/03/28 18:04:06;;;;;;;;;;;;;;;4.15;77.93;96317.28;10504577;28;1962;-76
2023/03/28 18:09:09;;;;;;;;;;;;;;;4.21;82.61;96318.25;10502873;28;2017;-77
2023/03/28 18:14:12;;;;;;;;;;;;;;;4.13;78.19;96314.00;10501163;28;1952;-78
2023/03/28 18:19:17;;;;;;;;;;;;;;;4.09;82.05;96306.69;10508882;28;2018;-77
2023/03/28 18:24:20;;;;;;;;;;;;;;;4.02;79.86;96307.56;10502908;28;2022;-79
2023/03/28 18:29:22;;;;;;;;;;;;;;;3.94;79.13;96302.50;10514325;28;2012;-77
2023/03/28 18:34:25;;;;;;;;;;;;;;;3.90;79.62;96304.00;10489169;28;2150;-76
2023/03/28 18:39:40;;;;;;;;;;;;;;;3.79;83.27;96294.06;10507245;28;2071;-77
2023/03/28 18:44:43;;;;;;;;;;;;;;;3.60;85.55;96295.88;10512737;28;2084;-78
2023/03/28 18:49:46;;;;;;;;;;;;;;;3.42;87.35;96290.47;10508078;28;1939;-78
2023/03/28 18:54:48;;;;;;;;;;;;;;;3.37;86.76;96290.31;10510225;28;1945;-79
2023/03/28 18:59:54;;;;;;;;;;;;;;;3.40;86.81;96281.91;10507844;28;2041;-75
2023/03/28 19:04:57;;;;;;;;;;;;;;;3.29;89.40;96271.97;10488077;28;2071;-77
2023/03/28 19:10:00;;;;;;;;;;;;;;;3.12;92.20;96275.16;10522721;28;2174;-75
2023/03/28 19:15:03;;;;;;;;;;;;;;;3.09;93.92;96275.56;10520865;28;2258;-74
2023/03/28 19:20:06;;;;;;;;;;;;;;;3.15;92.80;96271.25;10516404;28;2022;-72
2023/03/28 19:25:10;;;;;;;;;;;;;;;2.98;96.24;96277.06;10533930;28;2157;-73
2023/03/28 19:30:13;;;;;;;;;;;;;;;2.80;96.61;96265.53;10495197;28;1962;-74
2023/03/28 19:35:17;;;;;;;;;;;;;;;2.71;100.00;96257.00;10522957;28;2127;-72
2023/03/28 19:40:20;;;;;;;;;;;;;;;2.62;100.00;96260.94;10512206;28;1993;-73
2023/03/28 19:45:22;;;;;;;;;;;;;;;2.58;100.00;96246.47;10524838;28;2169;-73
2023/03/28 19:50:35;;;;;;;;;;;;;;;2.54;100.00;96240.75;10513899;28;2029;-74
2023/03/28 19:55:47;;;;;;;;;;;;;;;2.72;100.00;96237.41;10496652;28;2043;-71
2023/03/28 20:00:52;;;;;;;;;;;;;;;2.67;100.00;96237.22;10518497;28;1968;-72
2023/03/28 20:06:05;;;;;;;;;;;;;;;2.74;100.00;96224.75;10520716;28;2107;-73
2023/03/28 20:11:08;;;;;;;;;;;;;;;2.93;100.00;96217.69;10515757;28;1903;-75
2023/03/28 20:16:14;;;;;;;;;;;;;;;3.00;100.00;96218.44;10508862;28;2092;-74
2023/03/28 20:21:17;;;;;;;;;;;;;;;3.03;100.00;96212.69;10523350;28;1959;-71
2023/03/28 20:26:24;;;;;;;;;;;;;;;2.94;100.00;96212.16;10526109;28;1989;-73
2023/03/28 20:31:29;;;;;;;;;;;;;;;2.84;100.00;96222.41;10516862;28;1999;-74
2023/03/28 20:36:33;;;;;;;;;;;;;;;2.84;100.00;96219.75;10514885;28;2001;-73
2023/03/28 20:41:36;;;;;;;;;;;;;;;2.90;100.00;96212.78;10517443;28;1977;-72
2023/03/28 20:46:39;;;;;;;;;;;;;;;2.92;100.00;96210.72;10520239;28;2019;-73
2023/03/28 20:51:42;;;;;;;;;;;;;;;3.04;100.00;96202.88;10515238;28;2090;-73
2023/03/28 20:56:45;;;;;;;;;;;;;;;3.09;100.00;96211.84;10515887;28;2011;-72
2023/03/28 21:01:49;;;;;;;;;;;;;;;3.10;100.00;96202.03;10511083;28;2077;-74
2023/03/28 21:06:51;;;;;;;;;;;;;;;3.14;100.00;96190.75;10516000;28;1991;-73
2023/03/28 21:11:53;;;;;;;;;;;;;;;3.13;100.00;96186.47;10518692;28;1911;-73
2023/03/28 21:16:56;;;;;;;;;;;;;;;3.08;100.00;96194.28;10526786;28;2057;-73
2023/03/28 21:21:59;;;;;;;;;;;;;;;3.07;100.00;96195.31;10514899;28;2056;-72
2023/03/28 21:27:02;;;;;;;;;;;;;;;3.07;100.00;96163.44;10516455;28;2053;-73
2023/03/28 21:32:05;;;;;;;;;;;;;;;2.98;100.00;96164.72;10514623;28;1951;-72
2023/03/28 21:37:08;;;;;;;;;;;;;;;2.98;100.00;96162.06;10521877;28;1916;-72
2023/03/28 21:42:11;;;;;;;;;;;;;;;2.98;100.00;96162.06;10515284;28;2127;-72
2023/03/28 21:47:14;;;;;;;;;;;;;;;3.01;100.00;96164.28;10519344;28;1947;-71
2023/03/28 21:52:17;;;;;;;;;;;;;;;3.05;100.00;96160.16;10513627;28;1981;-72
2023/03/28 21:57:19;;;;;;;;;;;;;;;3.07;100.00;96142.19;10512818;28;1970;-72
2023/03/28 22:02:22;;;;;;;;;;;;;;;3.13;100.00;96140.50;10526898;28;2039;-74
2023/03/28 22:07:25;;;;;;;;;;;;;;;3.03;100.00;96122.38;10510129;28;2037;-71
2023/03/28 22:12:29;;;;;;;;;;;;;;;3.11;100.00;96119.44;10513561;28;1951;-72
2023/03/28 22:17:37;;;;;;;;;;;;;;;3.14;100.00;96123.53;10518152;28;1990;-71
2023/03/28 22:22:41;;;;;;;;;;;;;;;3.16;100.00;96121.47;10516714;28;2033;-72
2023/03/28 22:27:44;;;;;;;;;;;;;;;3.10;100.00;96107.19;10513185;28;2083;-73
2023/03/28 22:32:47;;;;;;;;;;;;;;;3.11;100.00;96098.19;10497523;28;2072;-71
2023/03/28 22:37:49;;;;;;;;;;;;;;;3.13;100.00;96101.47;10519879;28;2014;-71
2023/03/28 22:42:53;;;;;;;;;;;;;;;3.15;100.00;96093.28;10514698;28;2004;-75
2023/03/28 22:47:58;;;;;;;;;;;;;;;3.17;100.00;96104.50;10534254;28;1935;-72
2023/03/28 22:53:01;;;;;;;;;;;;;;;3.18;100.00;96098.13;10533430;28;2006;-72
2023/03/28 22:58:04;;;;;;;;;;;;;;;3.19;100.00;96100.59;10535311;28;2094;-72
2023/03/28 23:03:07;;;;;;;;;;;;;;;3.20;100.00;96107.53;10531838;28;1980;-73
2023/03/28 23:08:10;;;;;;;;;;;;;;;3.21;100.00;96105.69;10530686;28;1970;-71
2023/03/28 23:13:14;;;;;;;;;;;;;;;3.22;100.00;96105.47;10524883;28;2076;-71
2023/03/28 23:18:16;;;;;;;;;;;;;;;3.23;100.00;96099.09;10532497;28;2013;-71
2023/03/28 23:23:19;;;;;;;;;;;;;;;3.28;100.00;96126.88;10521758;28;2057;-72
2023/03/28 23:28:24;;;;;;;;;;;;;;;3.25;100.00;96126.28;10515473;28;2148;-72
2023/03/28 23:33:27;;;;;;;;;;;;;;;3.28;100.00;96124.22;10527309;28;2088;-71
2023/03/28 23:38:29;;;;;;;;;;;;;;;3.27;100.00;96127.91;10511426;28;2345;-72
2023/03/28 23:43:31;;;;;;;;;;;;;;;3.23;100.00;96123.03;10508185;28;1972;-72
2023/03/28 23:48:34;;;;;;;;;;;;;;;3.09;100.00;96092.31;10519016;28;2161;-73
2023/03/28 23:53:37;;;;;;;;;;;;;;;3.25;100.00;96120.97;10520463;28;2048;-73
2023/03/28 23:58:40;;;;;;;;;;;;;;;3.32;100.00;96126.22;10513175;28;2124;-72
